Terminal Aerodrome Forecast
Issued by NWS Sterling, VA

Current Version | Previous Version | Text Only | Print | Product List | Glossary Off
Versions: 1 2 3 4 5 6 7 8 9 10 11 12 13 14 15 16 17 18 19 20 21 22

000
FTUS41 KLWX 221500 AAA
TAFIAD
TAF AMD
KIAD 221502Z 2215/2318 33013G20KT P6SM SCT030 OVC050
     FM221800 34018G27KT P6SM OVC040
     FM230000 34017G22KT P6SM BKN040
     FM230800 32016KT P6SM BKN030
     FM231300 31019G28KT P6SM BKN030=

USA.gov is the U.S. government's official web portal to all federal, state and local government web resources and services.